Latest Weather Observations for Mount Crawford

IDS60901

Issued at 10:11 am CST Monday 21 August 2017 (issued every 10 minutes, with the page automatically refreshed every 10 minutes)

About weather observations | Map of Adelaide area stations | Latest observations for Adelaide area | Other Formats
Station Details ID: 023878 Name: MOUNT CRAWFORD AWS Lat: -34.73 Lon: 138.93 Height: 525.0 m
Data from the previous 72 hours. | See also: Recent months at Mount Crawford
Date/Time
CST
Temp
°C
App
Temp
°C
Dew
Point
°C
Rel
Hum
%
Delta-T
°C
Wind Press
QNH
hPa
Press
MSL
hPa
Rain since
9am
mm
Dir  Spd
km/h
Gust
km/h
Spd
kts
Gust
kts
21/10:00am 6.7 2.3 6.7 100 0.0 NNW 19 28 10 15 1008.0 1008.2 0.6
21/09:30am 6.4 1.8 6.4 100 0.0 NNW 20 28 11 15 1007.8 1007.9 0.2
21/09:00am 6.1 1.0 6.1 100 0.0 NNW 22 32 12 17 1007.6 1007.7 15.0
21/08:30am 5.5 0.7 5.5 100 0.0 N 20 28 11 15 1007.4 1007.5 14.8
21/08:00am 5.4 -0.2 5.3 99 0.0 N 24 33 13 18 1007.3 1007.4 14.6
21/07:30am 5.5 -1.2 5.4 99 0.0 N 30 41 16 22 1007.1 1007.2 14.6
21/07:00am 5.4 -0.2 5.3 99 0.0 N 24 37 13 20 1006.7 1006.9 14.6
21/06:30am 5.8 1.2 5.8 100 0.0 N 19 33 10 18 1006.5 1006.7 14.4
21/06:00am 4.6 -1.5 4.6 100 0.0 N 26 37 14 20 1006.7 1006.9 14.4
21/05:30am 4.7 -1.4 4.6 99 0.0 N 26 37 14 20 1007.1 1007.2 13.2
21/05:00am 5.3 -1.0 3.8 90 0.7 N 26 39 14 21 1007.3 1007.4 11.4
21/04:30am 5.9 -0.6 2.9 81 1.3 NNW 26 37 14 20 1007.2 1007.3 10.0
21/04:00am 7.2 -0.6 1.5 67 2.4 N 32 41 17 22 1007.1 1007.2 9.6
21/03:30am 7.8 -0.4 0.3 59 3.1 N 33 46 18 25 1006.8 1007.0 9.6
21/03:00am 8.4 0.4 0.4 57 3.3 N 32 50 17 27 1006.8 1007.0 9.6
21/02:30am 8.1 -0.1 0.3 58 3.2 N 33 52 18 28 1007.4 1007.5 9.6
21/02:17am 8.0 0.4 0.5 59 3.1 N 30 50 16 27 1007.7 1007.8 9.6
21/02:00am 6.6 -0.1 1.5 70 2.1 NNE 26 41 14 22 1008.1 1008.3 9.6
21/01:30am 6.5 -1.3 2.0 73 1.9 NNE 32 43 17 23 1008.6 1008.8 9.6
21/01:00am 6.1 -1.1 2.9 80 1.4 NNE 30 39 16 21 1009.3 1009.4 9.6
21/12:30am 5.9 0.8 4.2 89 0.8 NNE 20 28 11 15 1010.2 1010.4 9.6
21/12:00am 5.4 -0.8 4.5 94 0.4 NE 26 33 14 18 1010.7 1010.9 9.6
 
Date/Time
CST
Temp
°C
App
Temp
°C
Dew
Point
°C
Rel
Hum
%
Delta-T
°C
Wind Press
QNH
hPa
Press
MSL
hPa
Rain since
9am
mm
Dir  Spd
km/h
Gust
km/h
Spd
kts
Gust
kts
20/11:30pm 5.9 -1.0 4.4 90 0.7 NNE 30 41 16 22 1010.9 1011.1 9.6
20/11:00pm 5.5 -1.4 4.6 94 0.4 NNE 30 39 16 21 1011.5 1011.7 9.6
20/10:30pm 5.8 -1.7 4.4 91 0.6 NNE 33 52 18 28 1011.8 1012.0 9.6
20/10:14pm 5.9 -0.9 5.3 96 0.3 N 30 48 16 26 1012.2 1012.4 9.6
20/10:00pm 5.7 -1.6 5.6 99 0.0 N 33 50 18 27 1012.6 1012.8 9.6
20/09:30pm 5.9 -1.3 5.8 99 0.0 N 33 54 18 29 1013.4 1013.6 9.4
20/09:00pm 5.2 -2.0 5.1 99 0.0 NNE 32 44 17 24 1012.7 1012.9 9.0
20/08:36pm 6.0 -1.0 6.0 100 0.0 NNE 32 63 17 34 1014.0 1014.2 9.0
20/08:35pm 5.6 -0.7 5.6 100 0.0 NNE 28 48 15 26 1014.0 1014.2 9.0
20/08:30pm 4.9 0.0 4.9 100 0.0 NE 20 32 11 17 1013.6 1013.8 9.0
20/08:00pm 4.7 -2.2 4.7 100 0.0 NE 30 41 16 22 1013.3 1013.5 9.0
20/07:40pm 4.6 -3.3 4.6 100 0.0 NE 35 54 19 29 1012.9 1013.2 8.8
20/07:30pm 4.4 -2.5 4.4 100 0.0 NE 30 39 16 21 1013.2 1013.4 8.6
20/07:00pm 4.2 -2.0 4.2 100 0.0 NE 26 35 14 19 1014.3 1014.5 7.4
20/06:30pm 4.6 0.2 4.6 100 0.0 N 17 28 9 15 1015.3 1015.5 5.8
20/06:00pm 5.3 0.6 5.2 99 0.0 NNW 19 28 10 15 1015.4 1015.6 3.0
20/05:30pm 5.8 1.6 5.7 99 0.0 WNW 17 20 9 11 1015.1 1015.3 1.6
20/05:00pm 6.4 1.5 5.2 92 0.5 NE 20 28 11 15 1013.6 1013.8 0.8
20/04:30pm 7.5 0.8 3.6 76 1.7 NE 28 37 15 20 1013.6 1013.8 0.2
20/04:00pm 8.7 1.4 2.5 65 2.7 NE 30 41 16 22 1013.6 1013.8 0.0
20/03:30pm 9.2 0.9 2.1 61 3.1 NE 35 46 19 25 1013.9 1014.1 0.0
20/03:12pm 9.1 0.7 1.8 60 3.1 NE 35 54 19 29 1014.3 1014.5 0.0
20/03:00pm 8.8 1.0 2.6 65 2.7 NE 33 46 18 25 1014.6 1014.9 0.0
20/02:30pm 9.0 1.7 2.3 63 2.9 NNE 30 41 16 22 1016.0 1016.2 0.0
20/02:00pm 8.4 1.0 2.0 64 2.7 NNE 30 43 16 23 1016.2 1016.5 0.0
20/01:57pm 8.4 0.6 1.8 63 2.8 NE 32 50 17 27 1016.1 1016.4 0.0
20/01:30pm 8.7 -0.4 1.6 61 3.0 NE 39 54 21 29 1016.1 1016.4 0.0
20/01:00pm 8.8 -0.3 1.7 61 3.0 NNE 39 56 21 30 1017.4 1017.6 0.0
20/12:53pm 9.7 1.9 2.8 62 3.0 NNE 33 52 18 28 1017.8 1018.1 0.0
20/12:30pm 8.7 0.8 2.3 64 2.8 NE 33 50 18 27 1018.4 1018.7 0.0
20/12:10pm 8.9 0.7 2.7 65 2.7 NNE 35 54 19 29 1019.5 1019.8 0.0
20/12:00pm 9.0 0.7 2.1 62 3.0 NNE 35 50 19 27 1019.8 1020.1 0.0
20/11:46am 9.2 0.2 2.3 62 3.0 NNE 39 56 21 30 1020.1 1020.4 0.0
20/11:32am 8.7 0.0 2.1 63 2.8 NE 37 56 20 30 1020.0 1020.3 0.0
20/11:30am 9.0 0.4 2.6 64 2.8 NE 37 52 20 28 1020.0 1020.3 0.0
20/11:00am 8.7 -0.3 2.5 65 2.7 NE 39 52 21 28 1021.0 1021.4 0.0
20/10:30am 7.7 -0.7 1.8 66 2.5 NE 35 57 19 31 1020.5 1020.8 0.0
20/10:00am 7.7 -1.0 2.0 67 2.4 NE 37 52 20 28 1021.8 1022.1 0.0
20/09:30am 7.3 -1.4 2.0 69 2.2 NE 37 56 20 30 1021.7 1022.0 0.0
20/09:14am 7.1 -0.8 2.0 70 2.2 NE 33 52 18 28 1022.0 1022.3 0.0
20/09:00am 7.0 -1.2 2.5 73 1.9 NE 35 48 19 26 1022.2 1022.5 0.0
20/08:30am 5.7 -2.7 1.8 76 1.6 NE 35 46 19 25 1022.3 1022.6 0.0
20/08:00am 5.1 -3.7 1.2 76 1.6 NE 37 50 20 27 1022.5 1022.9 0.0
20/07:30am 4.7 -3.4 1.2 78 1.4 NE 33 43 18 23 1022.9 1023.3 0.0
20/07:00am 4.4 -3.5 1.1 79 1.3 NE 32 46 17 25 1022.7 1023.1 0.0
20/06:30am 4.1 -3.8 1.0 80 1.2 ENE 32 41 17 22 1022.6 1023.0 0.0
20/06:00am 4.0 -3.9 1.0 81 1.2 ENE 32 41 17 22 1022.8 1023.2 0.0
20/05:30am 4.3 -3.8 1.2 80 1.2 NE 33 43 18 23 1022.7 1023.1 0.0
20/05:00am 4.0 -3.2 1.0 81 1.2 NE 28 35 15 19 1023.4 1023.7 0.0
20/04:30am 4.2 -3.7 1.1 80 1.2 ENE 32 44 17 24 1023.4 1023.7 0.0
20/04:00am 4.0 -3.1 1.5 84 1.0 ENE 28 35 15 19 1023.6 1023.9 0.0
20/03:30am 3.8 -2.8 1.8 87 0.8 ENE 26 33 14 18 1023.5 1023.8 0.0
20/03:00am 4.1 -2.4 2.6 90 0.6 ENE 26 32 14 17 1023.7 1024.0 0.0
20/02:30am 4.2 -2.2 3.0 92 0.5 ENE 26 30 14 16 1024.2 1024.6 0.0
20/02:00am 4.5 -2.3 3.3 92 0.5 ENE 28 33 15 18 1024.2 1024.6 0.0
20/01:30am 4.4 -1.5 3.8 96 0.3 ENE 24 28 13 15 1024.5 1024.9 0.0
20/01:00am 4.5 -0.6 3.9 96 0.3 E 20 28 11 15 1024.9 1025.3 0.0
20/12:30am 4.0 -0.9 3.9 99 0.0 E 19 22 10 12 1025.3 1025.6 0.0
20/12:00am 4.1 -0.8 4.0 99 0.0 E 19 22 10 12 1025.5 1025.8 0.0
 
Date/Time
CST
Temp
°C
App
Temp
°C
Dew
Point
°C
Rel
Hum
%
Delta-T
°C
Wind Press
QNH
hPa
Press
MSL
hPa
Rain since
9am
mm
Dir  Spd
km/h
Gust
km/h
Spd
kts
Gust
kts
19/11:30pm 4.3 -0.6 4.2 99 0.0 ESE 19 22 10 12 1025.7 1026.0 0.0
19/11:00pm 4.4 -0.5 4.0 97 0.2 ESE 19 22 10 12 1026.0 1026.4 0.0
19/10:30pm 4.4 -0.6 3.7 95 0.3 ESE 19 24 10 13 1026.0 1026.4 0.0
19/10:00pm 4.8 -0.4 3.8 93 0.4 ESE 20 22 11 12 1026.1 1026.5 0.0
19/09:30pm 4.9 0.0 4.0 94 0.4 ESE 19 22 10 12 1026.3 1026.7 0.0
19/09:00pm 5.2 0.1 4.2 93 0.4 ESE 20 22 11 12 1026.4 1026.8 0.0
19/08:30pm 5.5 0.6 4.2 91 0.6 ESE 19 24 10 13 1026.5 1026.9 0.0
19/08:00pm 5.8 0.8 3.8 87 0.9 SE 19 22 10 12 1026.6 1027.0 0.0
19/07:30pm 6.2 1.9 3.5 83 1.2 SE 15 19 8 10 1026.7 1027.1 0.0
19/07:00pm 6.8 3.0 3.9 82 1.3 ESE 13 15 7 8 1026.8 1027.2 0.0
19/06:30pm 7.4 3.7 4.4 81 1.3 ESE 13 17 7 9 1026.8 1027.2 0.0
19/06:00pm 7.4 3.7 4.7 83 1.2 ESE 13 17 7 9 1026.5 1026.9 0.0
19/05:30pm 7.5 3.9 5.0 84 1.1 ESE 13 15 7 8 1026.5 1026.9 0.0
19/05:00pm 8.7 5.8 4.5 75 1.9 ESE 9 13 5 7 1026.4 1026.8 0.0
19/04:30pm 9.2 5.8 4.2 71 2.3 ESE 11 13 6 7 1026.2 1026.6 0.0
19/04:00pm 9.6 6.8 3.4 65 2.8 SE 7 11 4 6 1026.1 1026.5 0.0
19/03:30pm 10.3 7.3 4.0 65 2.9 E 9 17 5 9 1026.0 1026.4 0.0
19/03:00pm 8.9 5.7 3.1 67 2.5 ESE 9 15 5 8 1026.2 1026.6 0.0
19/02:30pm 10.4 6.3 4.3 66 2.8 E 15 24 8 13 1026.5 1026.9 0.0
19/02:00pm 9.3 5.5 4.1 70 2.4 ESE 13 22 7 12 1026.7 1027.1 0.0
19/01:30pm 10.9 8.0 6.3 73 2.2 ESE 11 17 6 9 1027.0 1027.4 0.0
19/01:00pm 10.2 6.9 6.2 76 1.9 SSE 13 24 7 13 1027.3 1027.6 0.0
19/12:30pm 9.5 6.1 6.0 79 1.6 S 13 17 7 9 1027.9 1028.3 0.0
19/12:00pm 8.6 5.2 5.7 82 1.3 SSE 13 19 7 10 1028.3 1028.7 0.0
19/11:30am 9.1 5.0 6.4 83 1.3 SSE 17 22 9 12 1028.5 1028.9 0.0
19/11:00am 9.6 6.1 5.6 76 1.9 SSE 13 24 7 13 1028.7 1029.1 0.0
19/10:30am 8.9 5.0 5.3 78 1.7 SSW 15 20 8 11 1028.7 1029.1 0.0
19/10:00am 8.2 4.0 5.8 85 1.1 S 17 24 9 13 1028.6 1029.0 0.0
19/09:30am 7.4 3.0 5.0 85 1.1 SSW 17 20 9 11 1028.7 1029.1 0.0
19/09:00am 7.0 3.2 5.6 91 0.6 SSW 15 20 8 11 1028.6 1029.0 1.8
19/08:30am 6.3 2.8 5.3 93 0.5 SSW 13 15 7 8 1028.4 1028.8 1.8
19/08:00am 5.4 2.2 5.1 98 0.1 SW 11 15 6 8 1028.2 1028.6 1.8
19/07:30am 4.8 1.1 4.7 99 0.0 SW 13 17 7 9 1027.7 1028.1 1.8
19/07:00am 4.6 0.5 4.5 99 0.0 SW 15 20 8 11 1027.1 1027.5 1.8
19/06:30am 4.5 0.4 4.4 99 0.0 SW 15 20 8 11 1026.7 1027.1 1.8
19/06:00am 4.1 -0.1 4.0 99 0.0 WSW 15 19 8 10 1026.4 1026.8 1.8
19/05:30am 4.3 0.6 4.2 99 0.0 SW 13 17 7 9 1026.1 1026.5 1.8
19/05:00am 4.1 0.3 4.0 99 0.0 WSW 13 19 7 10 1025.8 1026.2 1.8
19/04:30am 4.4 0.7 4.4 100 0.0 WSW 13 17 7 9 1025.5 1025.8 1.8
19/04:00am 4.4 0.3 4.3 99 0.0 SW 15 20 8 11 1025.4 1025.7 1.8
19/03:30am 4.5 0.4 4.5 100 0.0 SW 15 20 8 11 1025.3 1025.6 1.8
19/03:00am 4.5 0.4 4.5 100 0.0 SW 15 19 8 10 1025.3 1025.6 1.8
19/02:30am 4.6 0.5 4.6 100 0.0 SW 15 22 8 12 1025.3 1025.6 1.6
19/02:00am 4.8 0.8 4.8 100 0.0 SW 15 20 8 11 1025.4 1025.7 1.6
19/01:30am 4.8 0.4 4.8 100 0.0 SW 17 20 9 11 1025.4 1025.7 1.6
19/01:00am 4.9 0.9 4.9 100 0.0 SW 15 20 8 11 1025.3 1025.6 1.6
19/12:30am 4.9 0.5 4.9 100 0.0 SW 17 22 9 12 1025.2 1025.5 1.6
19/12:00am 5.0 0.6 5.0 100 0.0 SW 17 24 9 13 1025.3 1025.6 1.6
 
Date/Time
CST
Temp
°C
App
Temp
°C
Dew
Point
°C
Rel
Hum
%
Delta-T
°C
Wind Press
QNH
hPa
Press
MSL
hPa
Rain since
9am
mm
Dir  Spd
km/h
Gust
km/h
Spd
kts
Gust
kts
18/11:30pm 5.1 0.8 5.1 100 0.0 WSW 17 24 9 13 1025.3 1025.6 1.6
18/11:00pm 4.9 0.5 4.8 99 0.0 SW 17 24 9 13 1025.3 1025.6 1.6
18/10:30pm 5.1 0.7 5.0 99 0.0 SW 17 24 9 13 1025.2 1025.5 1.6
18/10:00pm 5.1 1.1 5.1 100 0.0 WSW 15 20 8 11 1025.3 1025.6 1.6
18/09:30pm 5.1 0.8 5.1 100 0.0 WSW 17 24 9 13 1025.3 1025.6 1.6
18/09:00pm 5.4 0.8 5.4 100 0.0 WSW 19 26 10 14 1025.0 1025.4 1.6
18/08:30pm 5.2 0.9 5.2 100 0.0 WSW 17 24 9 13 1024.8 1025.2 1.6
18/08:00pm 5.3 1.4 5.3 100 0.0 WSW 15 24 8 13 1024.6 1025.0 1.6
18/07:30pm 5.2 1.3 5.2 100 0.0 WSW 15 20 8 11 1024.4 1024.8 1.6
18/07:00pm 5.7 0.5 5.7 100 0.0 WSW 22 30 12 16 1024.0 1024.3 1.4
18/06:30pm 6.2 0.8 6.2 100 0.0 WSW 24 41 13 22 1023.8 1024.1 1.4
18/06:00pm 6.0 2.2 6.0 100 0.0 WSW 15 20 8 11 1023.5 1023.8 1.2
18/05:30pm 6.1 1.6 6.1 100 0.0 WSW 19 32 10 17 1023.2 1023.5 1.0
18/05:00pm 7.2 2.7 7.1 99 0.0 WSW 20 35 11 19 1022.8 1023.2 0.4
18/04:30pm 8.7 2.5 6.0 83 1.3 WSW 28 48 15 26 1022.3 1022.6 0.4
18/04:28pm 8.4 2.1 5.5 82 1.3 WSW 28 48 15 26 1022.1 1022.4 0.4
18/04:00pm 7.7 1.6 4.7 81 1.4 WSW 26 37 14 20 1022.2 1022.5 0.4
18/03:30pm 8.0 1.2 4.9 81 1.4 WSW 30 44 16 24 1022.1 1022.4 0.4
18/03:01pm 8.2 1.1 5.3 82 1.3 WSW 32 52 17 28 1021.7 1022.0 0.4
18/03:00pm 8.4 1.8 5.9 84 1.2 WSW 30 46 16 25 1021.8 1022.1 0.4
18/02:37pm 8.1 1.8 5.9 86 1.0 WSW 28 50 15 27 1021.8 1022.1 0.4
18/02:30pm 8.1 3.1 6.4 89 0.8 WSW 22 41 12 22 1021.8 1022.1 0.4
18/02:00pm 6.6 0.5 6.5 99 0.0 WSW 28 46 15 25 1021.5 1021.8 0.4
18/01:33pm 8.9 2.1 6.7 86 1.1 W 32 52 17 28 1021.2 1021.5 0.0
18/01:30pm 8.9 2.2 7.2 89 0.8 W 32 46 17 25 1021.2 1021.5 0.0
18/01:00pm 8.4 1.6 5.0 79 1.6 WSW 30 52 16 28 1021.4 1021.7 0.0
18/12:30pm 9.0 1.1 4.2 72 2.2 WSW 35 57 19 31 1021.2 1021.5 0.0
18/12:00pm 8.2 1.6 4.2 76 1.8 WSW 28 48 15 26 1021.5 1021.8 0.0
18/11:30am 8.1 0.2 4.3 77 1.7 WSW 35 65 19 35 1021.2 1021.5 0.0
18/11:00am 8.3 0.4 4.5 77 1.7 WSW 35 56 19 30 1020.9 1021.3 0.0
18/10:30am 7.7 0.2 4.3 79 1.5 WSW 33 56 18 30 1020.9 1021.3 0.0

Latest Capital City Observations: Canberra | Sydney | Melbourne | Brisbane | Adelaide | Perth | Hobart | Darwin

Other Formats:

Comma delimited format used in spreadsheet applications
http://www.bom.gov.au/fwo/IDS60901/IDS60901.94678.axf

JavaScript Object Notation format (JSON) in row-major order
http://www.bom.gov.au/fwo/IDS60901/IDS60901.94678.json